Time;durP1;ratioP1;P1;durP2;ratioP2;P2;SDS_P1;SDS_P2;PMS_P1;PMS_P2;Temp;Humidity;BMP_temperature;BMP_pressure;BME280_temperature;BME280_humidity;BME280_pressure;Samples;Min_cycle;Max_cycle;Signal;HPM_P1;HPM_P2
2022/03/18 00:02:26;;;;;;;18.33;5.55;;;;;;;11.37;77.18;103389.50;7378513;19;20475;-77
2022/03/18 00:04:54;;;;;;;8.73;1.88;;;;;;;11.33;77.22;103395.88;7379249;19;20474;-78
2022/03/18 00:07:22;;;;;;;12.88;1.92;;;;;;;11.33;77.07;103410.84;7380405;19;20091;-78
2022/03/18 00:09:49;;;;;;;7.72;1.73;;;;;;;11.32;76.86;103417.09;7379603;19;20038;-78
2022/03/18 00:12:17;;;;;;;10.00;2.08;;;;;;;11.31;77.13;103425.94;7382641;19;20013;-77
2022/03/18 00:14:44;;;;;;;11.75;2.25;;;;;;;11.28;77.36;103434.84;7381811;19;20373;-76
2022/03/18 00:17:12;;;;;;;10.27;2.58;;;;;;;11.28;78.83;103426.09;7381002;19;20029;-77
2022/03/18 00:19:39;;;;;;;10.20;3.25;;;;;;;11.27;78.34;103424.44;7380918;19;20519;-77
2022/03/18 00:22:07;;;;;;;11.30;2.10;;;;;;;11.23;78.36;103421.09;7381468;19;20057;-77
2022/03/18 00:24:34;;;;;;;8.30;1.70;;;;;;;11.19;78.47;103426.66;7379760;19;20338;-77
2022/03/18 00:27:03;;;;;;;13.82;5.38;;;;;;;11.17;78.77;103425.91;7378103;19;20045;-77
2022/03/18 00:29:31;;;;;;;9.38;2.63;;;;;;;11.11;79.09;103438.53;7383209;19;20137;-77
2022/03/18 00:31:59;;;;;;;8.07;1.95;;;;;;;11.11;79.01;103438.53;7382382;19;20041;-78
2022/03/18 00:34:26;;;;;;;21.98;8.48;;;;;;;11.14;80.23;103429.56;7379869;19;20018;-77
2022/03/18 00:36:54;;;;;;;14.60;5.40;;;;;;;11.15;81.14;103429.50;7377312;19;20006;-77
2022/03/18 00:39:22;;;;;;;11.23;2.22;;;;;;;11.12;80.22;103434.09;7376440;19;20029;-76
2022/03/18 00:41:49;;;;;;;7.63;1.75;;;;;;;11.06;79.45;103437.09;7378987;19;20056;-77
2022/03/18 00:44:16;;;;;;;9.93;2.00;;;;;;;11.04;79.29;103449.50;7379722;19;20228;-76
2022/03/18 00:46:43;;;;;;;11.38;2.17;;;;;;;11.00;79.99;103453.25;7381287;19;20045;-76
2022/03/18 00:54:24;;;;;;;13.80;4.70;;;;;;;10.97;81.21;103456.91;7383913;19;20049;-76
2022/03/18 00:56:51;;;;;;;10.43;3.55;;;;;;;11.00;82.23;103467.28;7383568;19;20007;-77
2022/03/18 00:59:18;;;;;;;11.75;1.98;;;;;;;10.98;82.34;103468.28;7385667;19;20007;-76
2022/03/18 01:01:45;;;;;;;8.10;2.58;;;;;;;10.92;81.54;103456.34;7384676;19;20226;-77
2022/03/18 01:04:13;;;;;;;10.68;2.20;;;;;;;10.90;81.25;103462.66;7383910;19;20018;-76
2022/03/18 01:06:40;;;;;;;7.30;2.13;;;;;;;10.91;81.25;103459.94;7387092;19;20310;-77
2022/03/18 01:09:07;;;;;;;9.20;1.70;;;;;;;10.88;81.22;103460.09;7383781;19;20038;-78
2022/03/18 01:11:34;;;;;;;8.15;1.98;;;;;;;10.83;81.01;103466.56;7386549;19;20041;-77
2022/03/18 01:14:02;;;;;;;10.73;3.08;;;;;;;10.83;81.88;103464.78;7385042;19;20186;-75
2022/03/18 01:16:32;;;;;;;11.35;2.58;;;;;;;10.86;82.22;103469.88;7386480;19;20014;-77
2022/03/18 01:18:59;;;;;;;20.52;7.80;;;;;;;10.92;85.34;103464.22;7384322;19;20045;-78
2022/03/18 01:21:26;;;;;;;11.35;2.67;;;;;;;10.94;85.88;103467.63;7384654;19;20335;-77
2022/03/18 01:23:53;;;;;;;8.57;2.03;;;;;;;10.90;82.50;103458.22;7385593;19;20493;-77
2022/03/18 01:26:21;;;;;;;25.10;10.15;;;;;;;10.87;83.61;103466.28;7387383;19;20025;-77
2022/03/18 01:28:48;;;;;;;6.00;2.38;;;;;;;10.84;83.39;103468.25;7387953;19;20026;-76
2022/03/18 01:31:15;;;;;;;8.88;2.90;;;;;;;10.77;82.61;103472.22;7383422;19;20029;-78
2022/03/18 01:33:42;;;;;;;12.25;2.03;;;;;;;10.75;83.23;103477.56;7385459;19;20010;-77
2022/03/18 01:36:11;;;;;;;10.98;3.72;;;;;;;10.76;83.40;103481.88;7383134;19;20107;-77
2022/03/18 01:38:38;;;;;;;9.57;2.35;;;;;;;10.75;83.24;103480.19;7384507;19;20363;-77
2022/03/18 01:41:05;;;;;;;11.73;2.20;;;;;;;10.73;82.76;103474.16;7383332;19;20345;-77
2022/03/18 01:43:38;;;;;;;9.88;2.63;;;;;;;10.70;83.13;103476.97;7387814;19;20035;-77
2022/03/18 01:46:05;;;;;;;13.32;4.70;;;;;;;10.71;83.83;103476.88;7384649;19;20006;-76
2022/03/18 01:48:32;;;;;;;7.70;2.22;;;;;;;10.68;83.48;103479.69;7384546;19;20391;-77
2022/03/18 01:51:00;;;;;;;10.30;2.80;;;;;;;10.63;83.69;103471.19;7382660;19;20328;-77
2022/03/18 01:53:27;;;;;;;7.65;1.85;;;;;;;10.64;84.13;103474.69;7380989;19;20027;-76
2022/03/18 01:55:55;;;;;;;10.95;3.25;;;;;;;10.61;83.72;103472.22;7385166;19;20018;-77
2022/03/18 01:58:23;;;;;;;10.30;3.55;;;;;;;10.56;84.42;103469.88;7383368;19;20086;-76
2022/03/18 02:00:50;;;;;;;8.07;2.10;;;;;;;10.56;84.42;103479.53;7383943;19;20340;-76
2022/03/18 02:03:17;;;;;;;16.15;7.28;;;;;;;10.55;84.96;103481.31;7384969;19;20041;-76
2022/03/18 02:05:45;;;;;;;8.65;1.67;;;;;;;10.57;85.01;103479.44;7387064;19;20010;-77
2022/03/18 02:08:15;;;;;;;8.95;1.85;;;;;;;10.57;84.10;103481.22;7380643;19;20015;-77
2022/03/18 02:10:42;;;;;;;10.13;1.95;;;;;;;10.56;84.53;103479.53;7386123;19;20333;-76
2022/03/18 02:13:10;;;;;;;7.82;2.15;;;;;;;10.53;85.02;103480.53;7381378;19;20011;-77
2022/03/18 02:15:37;;;;;;;8.82;1.77;;;;;;;10.49;84.84;103481.66;7380935;19;20559;-75
2022/03/18 02:18:05;;;;;;;14.13;3.95;;;;;;;10.48;84.84;103487.00;7383134;19;20014;-77
2022/03/18 02:20:34;;;;;;;11.20;1.40;;;;;;;10.45;85.11;103481.94;7383572;19;20516;-76
2022/03/18 02:23:02;;;;;;;6.57;1.17;;;;;;;10.40;84.87;103487.44;7380064;19;20289;-76
2022/03/18 02:25:30;;;;;;;4.38;1.40;;;;;;;10.38;84.94;103489.31;7383305;19;20018;-77
2022/03/18 02:28:01;;;;;;;9.95;1.45;;;;;;;10.37;85.10;103482.34;7385088;19;20007;-77
2022/03/18 02:30:33;;;;;;;7.85;1.70;;;;;;;10.34;84.87;103492.19;7381890;19;20018;-76
2022/03/18 02:33:01;;;;;;;7.80;1.90;;;;;;;10.34;85.32;103492.19;7384998;19;20011;-77
2022/03/18 02:35:29;;;;;;;10.73;2.05;;;;;;;10.31;85.22;103485.31;7382253;19;20010;-77
2022/03/18 02:37:58;;;;;;;11.93;2.50;;;;;;;10.28;85.18;103486.34;7381439;19;20010;-77
2022/03/18 02:40:26;;;;;;;4.80;1.30;;;;;;;10.26;84.92;103490.81;7383271;19;20037;-75
2022/03/18 02:42:54;;;;;;;7.10;1.65;;;;;;;10.26;85.29;103511.88;7380953;19;20415;-76
2022/03/18 02:45:21;;;;;;;3.75;0.95;;;;;;;10.27;85.38;103496.94;7384233;19;20015;-76
2022/03/18 02:47:48;;;;;;;4.35;1.30;;;;;;;10.25;85.67;103499.69;7381991;19;20014;-76
2022/03/18 02:50:16;;;;;;;9.55;1.45;;;;;;;10.27;85.49;103502.19;7384059;19;20021;-77
2022/03/18 02:52:44;;;;;;;8.93;1.23;;;;;;;10.27;85.74;103513.59;7380073;19;20014;-76
2022/03/18 02:55:11;;;;;;;9.13;1.63;;;;;;;10.28;85.59;103514.44;7382820;19;20024;-77
2022/03/18 02:57:39;;;;;;;7.93;1.52;;;;;;;10.27;85.62;103526.75;7382759;19;20014;-78
2022/03/18 03:00:07;;;;;;;7.05;1.45;;;;;;;10.23;85.31;103525.22;7382770;19;20013;-78
2022/03/18 03:02:35;;;;;;;7.13;2.00;;;;;;;10.24;85.88;103526.91;7380392;19;20469;-77
2022/03/18 03:10:17;;;;;;;5.60;1.50;;;;;;;10.24;85.50;103532.19;7379929;19;20061;-77
2022/03/18 03:12:44;;;;;;;7.03;1.70;;;;;;;10.24;85.83;103537.44;7380489;19;20018;-76
2022/03/18 03:15:11;;;;;;;11.60;1.60;;;;;;;10.22;85.48;103528.78;7380829;19;20010;-76
2022/03/18 03:17:38;;;;;;;7.88;1.65;;;;;;;10.20;85.61;103540.31;7380345;19;20025;-76
2022/03/18 03:20:07;;;;;;;14.40;1.83;;;;;;;10.17;85.51;103540.47;7381279;19;20130;-77
2022/03/18 03:22:34;;;;;;;8.05;2.10;;;;;;;10.11;85.36;103536.34;7379955;19;20077;-77
2022/03/18 03:25:02;;;;;;;10.13;2.95;;;;;;;10.10;85.62;103541.72;7379935;19;20006;-76
2022/03/18 03:27:30;;;;;;;8.27;1.83;;;;;;;10.11;85.74;103535.50;7378740;19;20033;-77
2022/03/18 03:29:59;;;;;;;9.70;2.28;;;;;;;10.10;86.03;103546.97;7381733;19;20430;-76
2022/03/18 03:32:27;;;;;;;9.27;2.17;;;;;;;10.07;86.04;103547.97;7378607;19;20475;-76
2022/03/18 03:34:57;;;;;;;10.45;2.63;;;;;;;10.06;85.97;103555.94;7378872;19;20426;-77
2022/03/18 03:37:25;;;;;;;8.63;2.75;;;;;;;10.03;86.27;103549.09;7376878;19;20015;-77
2022/03/18 03:39:53;;;;;;;13.73;2.67;;;;;;;10.04;86.51;103555.19;7378013;19;20350;-76
2022/03/18 03:42:21;;;;;;;12.60;3.40;;;;;;;10.05;86.45;103552.50;7378271;19;20119;-78
2022/03/18 03:44:48;;;;;;;7.85;2.13;;;;;;;10.03;85.99;103566.63;7378396;19;20018;-77
2022/03/18 03:47:16;;;;;;;8.55;2.55;;;;;;;9.99;86.11;103565.13;7381279;19;20011;-78
2022/03/18 03:49:44;;;;;;;18.25;3.95;;;;;;;9.95;86.19;103558.31;7377059;19;20010;-77
2022/03/18 03:52:11;;;;;;;9.95;2.75;;;;;;;9.94;86.52;103565.34;7379869;19;20448;-78
2022/03/18 03:54:40;;;;;;;19.98;3.63;;;;;;;9.89;86.63;103575.25;7378865;19;20505;-76
2022/03/18 03:57:08;;;;;;;12.43;3.38;;;;;;;9.87;86.43;103569.22;7379208;19;20018;-77
2022/03/18 03:59:36;;;;;;;10.98;3.00;;;;;;;9.91;86.93;103572.53;7377515;19;20027;-77
2022/03/18 04:02:03;;;;;;;19.30;5.30;;;;;;;9.93;86.65;103562.78;7380167;19;20047;-77
2022/03/18 04:04:34;;;;;;;10.90;3.33;;;;;;;9.95;86.35;103568.84;7375823;19;20003;-77
2022/03/18 04:07:01;;;;;;;10.05;3.42;;;;;;;10.00;87.74;103572.94;7380685;19;20017;-78
2022/03/18 04:09:28;;;;;;;9.73;3.88;;;;;;;10.04;88.35;103576.25;7380700;19;20034;-76
2022/03/18 04:11:55;;;;;;;148.93;17.23;;;;;;;10.04;88.14;103566.56;7379200;19;20024;-78
2022/03/18 04:14:23;;;;;;;17.70;6.22;;;;;;;10.04;89.46;103566.56;7379081;19;20409;-77
2022/03/18 04:16:49;;;;;;;9.15;2.65;;;;;;;10.00;87.63;103578.19;7380667;19;20038;-77
2022/03/18 04:19:18;;;;;;;6.28;2.65;;;;;;;9.93;86.43;103576.81;7376439;19;20093;-77
2022/03/18 04:21:45;;;;;;;11.38;3.60;;;;;;;9.92;87.79;103567.19;7376000;19;20002;-77
2022/03/18 04:24:12;;;;;;;8.88;3.10;;;;;;;9.93;88.37;103568.06;7376884;19;20045;-77
2022/03/18 04:26:41;;;;;;;10.75;2.92;;;;;;;9.86;87.53;103564.88;7376880;19;20011;-77
2022/03/18 04:29:08;;;;;;;15.43;3.63;;;;;;;9.81;87.15;103566.91;7377503;19;20010;-77
2022/03/18 04:31:36;;;;;;;13.00;2.97;;;;;;;9.75;86.72;103564.63;7379095;19;20448;-77
2022/03/18 04:34:03;;;;;;;13.75;3.78;;;;;;;9.73;87.01;103562.06;7381967;19;20066;-77
2022/03/18 04:36:30;;;;;;;11.38;3.50;;;;;;;9.76;87.25;103558.41;7376261;19;20018;-76
2022/03/18 04:38:58;;;;;;;10.30;4.53;;;;;;;9.78;87.72;103557.41;7378469;19;20107;-78
2022/03/18 04:41:25;;;;;;;9.13;4.20;;;;;;;9.78;87.40;103560.03;7377904;19;20062;-77
2022/03/18 04:43:53;;;;;;;20.20;8.07;;;;;;;9.80;88.04;103562.59;7378076;19;20042;-77
2022/03/18 04:46:20;;;;;;;16.73;3.78;;;;;;;9.75;87.61;103570.69;7378493;19;20010;-76
2022/03/18 04:48:47;;;;;;;12.80;3.17;;;;;;;9.72;87.20;103568.25;7378443;19;20014;-76
2022/03/18 04:51:14;;;;;;;15.43;3.65;;;;;;;9.70;87.02;103574.53;7377377;19;20015;-77
2022/03/18 04:53:42;;;;;;;15.32;3.38;;;;;;;9.68;87.17;103579.00;7375678;19;20011;-77
2022/03/18 04:57:15;;;;;;;9.63;3.50;;;;;;;9.65;87.43;103579.16;7381243;19;20027;-78
2022/03/18 04:58:57;;;;;;;12.77;3.10;;;;;;;9.63;87.47;103581.88;7377700;19;20105;-77
2022/03/18 05:01:26;;;;;;;17.13;3.67;;;;;;;9.61;87.52;103585.50;7376695;19;20017;-77
2022/03/18 05:03:55;;;;;;;11.88;3.60;;;;;;;9.61;87.77;103591.59;7380893;19;20258;-77
2022/03/18 05:06:22;;;;;;;14.57;3.75;;;;;;;9.61;87.56;103594.22;7377744;19;20574;-77
2022/03/18 05:08:49;;;;;;;12.65;3.75;;;;;;;9.61;87.39;103598.63;7377848;19;20010;-77
2022/03/18 05:11:16;;;;;;;14.27;5.10;;;;;;;9.60;87.68;103587.25;7375427;19;20015;-78
2022/03/18 05:13:44;;;;;;;11.00;3.83;;;;;;;9.65;88.17;103600.19;7375954;19;20045;-77
2022/03/18 05:16:11;;;;;;;16.40;4.13;;;;;;;9.64;87.93;103595.88;7378833;19;20502;-76
2022/03/18 05:18:39;;;;;;;10.90;3.10;;;;;;;9.62;87.56;103595.09;7373733;19;20018;-76
2022/03/18 05:21:06;;;;;;;12.18;3.58;;;;;;;9.60;87.02;103616.19;7375659;19;20043;-76
2022/03/18 05:23:33;;;;;;;13.07;4.30;;;;;;;9.60;87.22;103612.72;7375457;19;20499;-77
2022/03/18 05:26:00;;;;;;;12.90;3.72;;;;;;;9.60;87.04;103617.97;7378922;19;20019;-78
2022/03/18 05:28:27;;;;;;;12.55;3.53;;;;;;;9.62;87.04;103619.59;7375942;19;20010;-77
2022/03/18 05:30:54;;;;;;;13.30;3.63;;;;;;;9.64;86.87;103628.25;7375652;19;20019;-77
2022/03/18 05:33:21;;;;;;;12.63;3.22;;;;;;;9.64;87.02;103625.63;7379806;19;20431;-76
2022/03/18 05:35:49;;;;;;;12.00;3.42;;;;;;;9.60;86.74;103639.84;7382589;19;20321;-76
2022/03/18 05:38:15;;;;;;;17.00;3.78;;;;;;;9.61;87.05;103651.19;7381660;19;20031;-77
2022/03/18 05:40:42;;;;;;;18.05;3.75;;;;;;;9.59;87.25;103637.31;7383736;19;20307;-76
2022/03/18 05:43:09;;;;;;;11.27;3.97;;;;;;;9.56;86.95;103634.81;7382918;19;20014;-78
2022/03/18 05:45:36;;;;;;;12.95;3.75;;;;;;;9.57;87.19;103649.66;7384786;19;20128;-76
2022/03/18 05:48:06;;;;;;;15.85;4.78;;;;;;;9.56;87.29;103650.56;7381121;19;20086;-76
2022/03/18 05:50:34;;;;;;;9.68;3.42;;;;;;;9.53;87.06;103654.22;7381701;19;20021;-76
2022/03/18 05:53:01;;;;;;;18.75;3.97;;;;;;;9.51;87.12;103650.81;7384358;19;20085;-76
2022/03/18 05:56:52;;;;;;;20.38;7.22;;;;;;;9.51;87.25;103653.44;7382847;19;20015;-77
2022/03/18 05:58:15;;;;;;;11.10;3.60;;;;;;;9.54;87.33;103658.56;7383951;19;20021;-77
2022/03/18 06:00:43;;;;;;;40.22;9.98;;;;;;;9.55;87.51;103654.97;7385089;19;20039;-75
2022/03/18 06:03:12;;;;;;;14.45;4.30;;;;;;;9.59;89.14;103647.81;7381805;19;20015;-77
2022/03/18 06:05:42;;;;;;;16.33;5.07;;;;;;;9.57;88.34;103653.13;7384554;19;20007;-77
2022/03/18 06:13:24;;;;;;;13.82;4.40;;;;;;;9.47;87.94;103667.66;7384678;19;20370;-76
2022/03/18 06:15:51;;;;;;;11.30;4.13;;;;;;;9.40;88.48;103661.84;7384157;19;20014;-77
2022/03/18 06:18:37;;;;;;;13.65;3.90;;;;;;;9.42;88.74;103662.63;7382786;19;20017;-76
2022/03/18 06:21:07;;;;;;;14.63;4.20;;;;;;;9.44;88.80;103670.44;7379532;19;20015;-77
2022/03/18 06:23:35;;;;;;;13.55;4.00;;;;;;;9.45;88.58;103678.25;7381419;19;20074;-76
2022/03/18 06:26:03;;;;;;;17.17;4.68;;;;;;;9.48;88.26;103685.13;7385679;19;20015;-76
2022/03/18 06:28:31;;;;;;;13.52;4.47;;;;;;;9.49;88.28;103681.59;7381861;19;20031;-76
2022/03/18 06:30:58;;;;;;;13.05;3.53;;;;;;;9.50;88.47;103680.63;7380105;19;20015;-78
2022/03/18 06:33:27;;;;;;;14.40;3.70;;;;;;;9.53;88.33;103683.13;7381464;19;20140;-76
2022/03/18 06:35:54;;;;;;;13.82;4.10;;;;;;;9.55;88.25;103689.16;7380124;19;20047;-78
2022/03/18 06:38:22;;;;;;;18.23;3.33;;;;;;;9.57;88.72;103691.72;7381275;19;20164;-76
2022/03/18 06:40:50;;;;;;;13.13;3.53;;;;;;;9.60;88.91;103696.84;7382199;19;20429;-77
2022/03/18 06:43:17;;;;;;;18.05;3.63;;;;;;;9.66;89.15;103701.78;7383345;19;20011;-76
2022/03/18 06:45:44;;;;;;;16.98;3.90;;;;;;;9.72;89.35;103704.09;7383162;19;20021;-77
2022/03/18 06:48:11;;;;;;;14.60;2.90;;;;;;;9.76;89.74;103711.75;7382021;19;20119;-77
2022/03/18 06:50:38;;;;;;;16.48;3.70;;;;;;;9.83;89.97;103709.69;7382235;19;20528;-76
2022/03/18 06:53:06;;;;;;;12.60;3.70;;;;;;;9.86;90.26;103702.47;7385480;19;20149;-77
2022/03/18 06:55:36;;;;;;;17.67;5.25;;;;;;;9.95;90.52;103702.97;7384143;19;20023;-77
2022/03/18 06:58:08;;;;;;;28.73;8.13;;;;;;;10.01;90.49;103718.41;7379602;19;20015;-76
2022/03/18 07:00:35;;;;;;;12.85;3.17;;;;;;;10.05;90.65;103720.84;7381367;19;20011;-75
2022/03/18 07:03:02;;;;;;;16.20;3.78;;;;;;;10.08;90.53;103733.81;7380263;19;20015;-77
2022/03/18 07:05:31;;;;;;;15.10;3.30;;;;;;;10.08;90.36;103748.75;7381016;19;20044;-77
2022/03/18 07:07:59;;;;;;;19.10;4.00;;;;;;;10.16;89.54;103751.88;7380529;19;20226;-77
2022/03/18 07:10:26;;;;;;;14.18;3.42;;;;;;;10.20;89.67;103762.19;7383745;19;20081;-77
2022/03/18 07:12:54;;;;;;;15.60;3.72;;;;;;;10.24;89.29;103760.25;7380427;19;20344;-77
2022/03/18 07:15:21;;;;;;;14.70;3.92;;;;;;;10.28;88.92;103767.91;7382580;19;20048;-76
2022/03/18 07:20:31;;;;;;;16.70;4.07;;;;;;;10.30;87.96;103773.09;7384351;19;20533;-78
2022/03/18 07:23:04;;;;;;;13.13;3.50;;;;;;;10.34;87.57;103766.75;7379920;19;20002;-77
2022/03/18 07:25:34;;;;;;;18.25;3.08;;;;;;;10.36;87.83;103771.94;7384637;19;20011;-76
2022/03/18 07:28:01;;;;;;;18.60;3.78;;;;;;;10.45;88.70;103772.31;7379629;19;20010;-76
2022/03/18 07:30:28;;;;;;;25.05;4.18;;;;;;;10.52;86.63;103764.94;7380710;19;20124;-76
2022/03/18 07:32:55;;;;;;;12.93;3.35;;;;;;;10.60;86.51;103770.66;7380264;19;20344;-76
2022/03/18 07:35:23;;;;;;;14.98;3.53;;;;;;;10.69;85.87;103770.19;7378559;19;20010;-75
2022/03/18 07:37:50;;;;;;;14.57;3.35;;;;;;;10.73;85.46;103775.19;7381863;19;20018;-75
2022/03/18 07:40:19;;;;;;;18.75;4.97;;;;;;;10.80;85.89;103774.88;7383837;19;20458;-76
2022/03/18 07:42:52;;;;;;;19.80;5.07;;;;;;;10.99;85.15;103772.97;7379892;19;20503;-76
2022/03/18 07:45:21;;;;;;;17.75;4.35;;;;;;;11.29;84.00;103776.56;7383439;19;20098;-76
2022/03/18 07:47:49;;;;;;;13.00;3.35;;;;;;;11.49;82.66;103770.19;7380333;19;20474;-78
2022/03/18 07:50:21;;;;;;;14.10;3.95;;;;;;;11.81;82.08;103771.06;7384044;19;20090;-77
2022/03/18 07:52:54;;;;;;;16.08;5.72;;;;;;;12.27;80.90;103769.22;7385718;19;20039;-76
2022/03/18 07:55:24;;;;;;;11.27;4.28;;;;;;;12.66;79.00;103780.03;7379626;19;20024;-76
2022/03/18 07:57:52;;;;;;;18.55;4.35;;;;;;;12.69;77.38;103784.28;7379342;19;20086;-77
2022/03/18 08:00:19;;;;;;;12.40;3.72;;;;;;;12.58;77.93;103781.44;7381072;19;20018;-76
2022/03/18 08:02:48;;;;;;;20.95;5.00;;;;;;;12.48;77.73;103790.88;7376391;19;20012;-75
2022/03/18 08:05:16;;;;;;;14.55;5.13;;;;;;;12.22;78.15;103790.63;7382582;19;20129;-76
2022/03/18 08:07:45;;;;;;;16.15;4.22;;;;;;;12.12;78.96;103791.25;7381021;19;20006;-76
2022/03/18 08:10:13;;;;;;;16.15;5.10;;;;;;;11.97;79.71;103795.63;7381264;19;20018;-76
2022/03/18 08:12:41;;;;;;;15.23;4.53;;;;;;;11.86;80.98;103790.97;7380479;19;20011;-76
2022/03/18 08:15:10;;;;;;;16.05;4.13;;;;;;;11.88;79.76;103794.38;7379461;19;20320;-77
2022/03/18 08:17:38;;;;;;;14.05;3.75;;;;;;;11.90;79.67;103788.97;7377667;19;20022;-77
2022/03/18 08:20:07;;;;;;;13.13;4.00;;;;;;;11.83;79.95;103793.78;7379278;19;20468;-77
2022/03/18 08:22:35;;;;;;;14.40;4.30;;;;;;;11.89;79.68;103801.31;7379422;19;20010;-77
2022/03/18 08:25:04;;;;;;;15.95;4.30;;;;;;;12.50;78.46;103805.66;7380791;19;20011;-77
2022/03/18 08:27:33;;;;;;;14.27;4.53;;;;;;;13.25;76.00;103809.91;7378175;19;20534;-76
2022/03/18 08:30:04;;;;;;;8.93;4.15;;;;;;;14.08;72.76;103811.53;7378247;19;20030;-75
2022/03/18 08:32:33;;;;;;;18.48;4.40;;;;;;;14.38;70.46;103800.69;7377000;19;20019;-77
2022/03/18 08:35:00;;;;;;;15.73;3.92;;;;;;;14.31;69.81;103802.06;7381096;19;20093;-77
2022/03/18 08:40:05;;;;;;;11.85;3.70;;;;;;;13.52;72.35;103802.84;7377787;19;20033;-76
2022/03/18 08:42:32;;;;;;;18.30;4.10;;;;;;;13.26;74.03;103801.00;7378908;19;20011;-76
2022/03/18 08:44:59;;;;;;;14.95;3.88;;;;;;;13.11;74.01;103801.91;7380499;19;20010;-77
2022/03/18 08:47:26;;;;;;;16.30;4.22;;;;;;;12.98;75.93;103803.63;7377964;19;20308;-76
2022/03/18 08:49:56;;;;;;;17.88;4.20;;;;;;;12.87;75.78;103804.28;7377138;19;20010;-76
2022/03/18 08:52:23;;;;;;;10.80;3.28;;;;;;;12.75;75.54;103800.59;7378807;19;20022;-77
2022/03/18 08:54:51;;;;;;;11.98;3.45;;;;;;;12.62;77.07;103804.09;7375777;19;20025;-77
2022/03/18 08:57:18;;;;;;;16.25;4.30;;;;;;;12.60;77.04;103800.66;7378993;19;20025;-77
2022/03/18 08:59:45;;;;;;;20.98;5.28;;;;;;;12.63;77.54;103797.88;7377379;19;20135;-77
2022/03/18 09:02:12;;;;;;;26.83;4.43;;;;;;;12.65;76.79;103796.81;7378035;19;20015;-76
2022/03/18 09:04:40;;;;;;;18.13;4.22;;;;;;;12.67;77.18;103805.50;7377417;19;20046;-77
2022/03/18 09:07:11;;;;;;;14.90;3.33;;;;;;;12.76;77.37;103804.94;7382330;19;20018;-77
2022/03/18 09:09:38;;;;;;;18.52;3.60;;;;;;;12.80;77.67;103809.09;7386844;19;20010;-76
2022/03/18 09:12:05;;;;;;;13.25;4.03;;;;;;;12.82;78.45;103799.28;7382974;19;20006;-76
2022/03/18 09:14:32;;;;;;;11.13;2.97;;;;;;;12.86;76.30;103805.22;7386742;19;20018;-76
2022/03/18 09:17:00;;;;;;;18.05;4.65;;;;;;;12.84;76.74;103820.34;7388620;19;20066;-76
2022/03/18 09:19:27;;;;;;;16.83;4.30;;;;;;;12.85;77.25;103828.16;7384440;19;20015;-76
2022/03/18 09:21:54;;;;;;;12.07;4.10;;;;;;;12.90;76.85;103809.38;7384527;19;20343;-76
2022/03/18 09:24:21;;;;;;;19.73;3.90;;;;;;;12.91;77.71;103815.53;7383798;19;20571;-76
2022/03/18 09:26:48;;;;;;;10.93;2.90;;;;;;;12.94;76.57;103821.50;7387526;19;20122;-76
2022/03/18 09:29:16;;;;;;;16.77;4.55;;;;;;;12.95;75.92;103819.69;7386256;19;20111;-76
2022/03/18 09:31:46;;;;;;;18.05;3.90;;;;;;;12.99;76.68;103824.69;7387969;19;20029;-78
2022/03/18 09:34:17;;;;;;;22.73;3.63;;;;;;;13.05;76.91;103820.84;7384989;19;20082;-76
2022/03/18 09:36:46;;;;;;;12.90;3.55;;;;;;;13.11;76.38;103818.66;7386765;19;20015;-76
2022/03/18 09:39:14;;;;;;;16.23;4.28;;;;;;;13.17;75.77;103823.59;7381108;19;20356;-76
2022/03/18 09:41:41;;;;;;;17.98;4.30;;;;;;;13.19;76.17;103828.78;7386177;19;20014;-76
2022/03/18 09:44:10;;;;;;;22.45;3.85;;;;;;;13.22;76.13;103837.38;7383511;19;20014;-75
2022/03/18 09:46:41;;;;;;;14.98;3.33;;;;;;;13.21;76.11;103830.38;7388352;19;20086;-77
2022/03/18 09:49:13;;;;;;;12.07;3.35;;;;;;;13.21;75.92;103835.66;7383960;19;20055;-76
2022/03/18 09:51:42;;;;;;;16.35;4.10;;;;;;;13.22;75.62;103833.88;7383667;19;20272;-77
2022/03/18 09:54:16;;;;;;;16.05;3.33;;;;;;;13.24;75.17;103842.56;7380606;19;20809;-76
2022/03/18 09:56:46;;;;;;;12.05;3.60;;;;;;;13.30;75.35;103831.63;7385231;19;20348;-77
2022/03/18 09:59:14;;;;;;;13.32;3.55;;;;;;;13.30;75.17;103847.47;7385618;19;20011;-78
2022/03/18 10:01:42;;;;;;;13.90;2.75;;;;;;;13.37;74.61;103840.00;7382753;19;20010;-76
2022/03/18 10:04:10;;;;;;;10.38;2.63;;;;;;;13.42;74.71;103846.69;7383402;19;20014;-76
2022/03/18 10:06:41;;;;;;;12.98;2.15;;;;;;;13.45;74.09;103849.16;7381714;19;20010;-76
2022/03/18 10:09:11;;;;;;;11.15;1.98;;;;;;;13.45;74.68;103849.16;7381517;19;20010;-77
2022/03/18 10:11:43;;;;;;;12.65;3.88;;;;;;;13.50;74.59;103843.59;7386416;19;20584;-76
2022/03/18 10:14:20;;;;;;;15.45;3.47;;;;;;;13.45;74.11;103851.81;7383896;19;20015;-78
2022/03/18 10:16:50;;;;;;;14.07;3.13;;;;;;;13.43;74.57;103843.13;7386605;19;20105;-76
2022/03/18 10:19:21;;;;;;;15.70;3.92;;;;;;;13.47;73.89;103841.13;7377825;19;20034;-78
2022/03/18 10:21:50;;;;;;;17.70;2.70;;;;;;;13.49;73.02;103840.09;7381731;19;20448;-76
2022/03/18 10:24:22;;;;;;;17.52;4.60;;;;;;;13.53;72.67;103840.72;7385096;19;20019;-77
2022/03/18 10:26:50;;;;;;;23.00;5.75;;;;;;;13.55;73.22;103855.56;7353541;19;20015;-77
2022/03/18 10:29:18;;;;;;;12.27;3.42;;;;;;;13.54;73.72;103853.88;7378945;19;20471;-77
2022/03/18 10:31:59;;;;;;;18.60;5.15;;;;;;;13.63;74.24;103855.06;7385215;19;20011;-76
2022/03/18 10:37:14;;;;;;;13.35;3.03;;;;;;;13.74;73.08;103854.38;7379198;19;20324;-77
2022/03/18 10:39:45;;;;;;;11.57;2.50;;;;;;;13.77;73.03;103868.25;7384040;19;20017;-76
2022/03/18 10:42:15;;;;;;;13.85;2.85;;;;;;;13.80;72.74;103864.59;7385104;19;20021;-77
2022/03/18 10:44:48;;;;;;;11.75;2.42;;;;;;;13.87;70.60;103860.56;7384860;19;20040;-77
2022/03/18 10:47:26;;;;;;;11.88;3.25;;;;;;;13.92;71.07;103866.44;7384647;19;20507;-76
2022/03/18 10:50:04;;;;;;;10.65;2.65;;;;;;;13.94;71.87;103872.47;7381725;19;20486;-77
2022/03/18 10:52:31;;;;;;;12.23;2.47;;;;;;;13.98;71.48;103869.53;7382645;19;20026;-76
2022/03/18 10:55:15;;;;;;;8.40;2.10;;;;;;;13.97;71.26;103870.47;7381186;19;20033;-76
2022/03/18 10:57:49;;;;;;;6.93;2.90;;;;;;;13.96;71.23;103879.41;7378918;19;20064;-75
2022/03/18 11:00:18;;;;;;;9.13;2.17;;;;;;;13.97;71.29;103869.63;7379744;19;20041;-78
2022/03/18 11:02:48;;;;;;;13.23;2.20;;;;;;;13.99;71.51;103876.53;7378328;19;20025;-77
2022/03/18 11:05:20;;;;;;;14.90;2.72;;;;;;;14.05;71.05;103880.59;7379578;19;20317;-77
2022/03/18 11:07:50;;;;;;;12.10;2.67;;;;;;;14.06;70.54;103880.50;7377919;19;20624;-77
2022/03/18 11:13:01;;;;;;;8.32;2.55;;;;;;;14.20;70.55;103889.31;7381593;19;20049;-76
2022/03/18 11:15:31;;;;;;;12.88;2.78;;;;;;;14.27;69.53;103893.28;7381199;19;20580;-76
2022/03/18 11:17:59;;;;;;;11.52;1.98;;;;;;;14.35;68.58;103883.00;7379776;19;20329;-76
2022/03/18 11:20:27;;;;;;;9.57;2.00;;;;;;;14.40;67.83;103881.78;7376694;19;20014;-76
2022/03/18 11:22:55;;;;;;;11.02;2.03;;;;;;;14.42;68.16;103895.81;7378154;19;20011;-76
2022/03/18 11:25:23;;;;;;;10.05;2.08;;;;;;;14.48;67.97;103895.38;7381500;19;20024;-76
2022/03/18 11:27:51;;;;;;;11.07;2.47;;;;;;;14.51;67.78;103889.88;7380265;19;20010;-77
2022/03/18 11:30:25;;;;;;;8.52;1.65;;;;;;;14.63;66.69;103888.19;7379724;19;20126;-78
2022/03/18 11:33:16;;;;;;;8.23;1.98;;;;;;;14.67;66.64;103891.50;7376536;19;20649;-77
2022/03/18 11:35:51;;;;;;;12.57;2.90;;;;;;;14.75;67.95;103876.75;7379877;19;20039;-76
2022/03/18 11:38:28;;;;;;;11.70;2.95;;;;;;;14.80;68.23;103885.25;7377842;19;20048;-76
2022/03/18 11:40:59;;;;;;;7.05;2.10;;;;;;;14.86;67.18;103879.53;7382637;19;20043;-77
2022/03/18 11:43:33;;;;;;;7.70;1.25;;;;;;;14.88;67.23;103879.44;7381322;19;20014;-76
2022/03/18 11:46:13;;;;;;;6.90;1.40;;;;;;;14.86;66.12;103884.84;7381984;19;20014;-76
2022/03/18 11:48:49;;;;;;;15.18;1.95;;;;;;;14.84;64.70;103885.88;7379349;19;20025;-77
2022/03/18 11:51:37;;;;;;;5.75;1.13;;;;;;;14.84;64.91;103878.78;7378068;19;20045;-77
2022/03/18 11:54:10;;;;;;;9.48;0.98;;;;;;;14.80;65.19;103874.66;7377595;19;20014;-77
2022/03/18 11:56:47;;;;;;;8.30;1.30;;;;;;;14.85;65.86;103869.88;7383151;19;20006;-77